Time;durP1;ratioP1;P1;durP2;ratioP2;P2;SDS_P1;SDS_P2;PMS_P1;PMS_P2;Temp;Humidity;BMP_temperature;BMP_pressure;BME280_temperature;BME280_humidity;BME280_pressure;Samples;Min_cycle;Max_cycle;Signal;HPM_P1;HPM_P2
2023/01/29 00:01:27;;;;;;;33.00;20.38;;;;;;;-1.79;80.05;100049.00;5007106;28;20061;-79
2023/01/29 00:03:52;;;;;;;40.47;21.25;;;;;;;-1.53;80.50;100045.59;5008919;28;20115;-79
2023/01/29 00:06:18;;;;;;;37.40;21.67;;;;;;;-0.82;78.72;100045.84;5024765;28;20100;-79
2023/01/29 00:08:43;;;;;;;33.78;19.73;;;;;;;-1.02;79.00;100049.53;5021816;28;20031;-80
2023/01/29 00:11:09;;;;;;;32.40;18.80;;;;;;;-0.73;77.83;100034.50;5008927;28;20025;-80
2023/01/29 00:13:35;;;;;;;35.83;20.58;;;;;;;-0.49;76.17;100041.78;4991240;28;20037;-80
2023/01/29 00:16:01;;;;;;;37.20;21.48;;;;;;;-0.52;76.58;100037.66;5006970;28;20465;-79
2023/01/29 00:18:28;;;;;;;33.78;19.80;;;;;;;-0.46;75.58;100026.56;5001531;28;20031;-79
2023/01/29 00:20:53;;;;;;;35.63;19.98;;;;;;;-0.72;76.94;100030.88;5008332;28;20033;-79
2023/01/29 00:23:19;;;;;;;36.30;19.73;;;;;;;-0.76;76.75;100025.13;4974264;28;20042;-79
2023/01/29 00:25:45;;;;;;;36.85;20.77;;;;;;;-1.10;77.68;100025.88;5025321;28;20029;-80
2023/01/29 00:28:11;;;;;;;34.25;20.80;;;;;;;-0.88;77.63;100033.34;4976954;28;20038;-79
2023/01/29 00:30:37;;;;;;;41.58;23.05;;;;;;;-0.80;77.15;100022.94;5006534;28;20025;-79
2023/01/29 00:33:04;;;;;;;37.17;21.90;;;;;;;-0.69;77.00;100012.25;5006084;28;20071;-79
2023/01/29 00:35:30;;;;;;;44.15;23.90;;;;;;;-1.02;76.68;100013.69;5024048;28;20041;-79
2023/01/29 00:37:56;;;;;;;36.45;20.73;;;;;;;-0.73;76.99;100026.63;5023404;28;20044;-79
2023/01/29 00:40:21;;;;;;;42.22;21.55;;;;;;;-0.78;77.50;100010.50;5007045;28;20037;-80
2023/01/29 00:45:32;;;;;;;34.15;20.25;;;;;;;-0.69;76.91;100014.88;4997916;28;20504;-79
2023/01/29 00:47:57;;;;;;;34.78;19.73;;;;;;;-0.67;76.79;100018.16;5025161;28;20037;-79
2023/01/29 00:50:22;;;;;;;39.70;20.55;;;;;;;-0.77;77.38;100001.69;5001736;28;20323;-80
2023/01/29 00:52:50;;;;;;;46.33;23.27;;;;;;;-1.18;75.59;100005.63;4987602;28;20040;-80
2023/01/29 00:55:16;;;;;;;40.22;21.85;;;;;;;-0.78;77.20;100000.88;5021833;28;20051;-79
2023/01/29 00:57:41;;;;;;;35.42;20.58;;;;;;;-0.87;77.80;100001.75;5007219;28;20104;-79
2023/01/29 01:00:11;;;;;;;39.60;21.65;;;;;;;-0.86;76.30;99998.16;4991189;28;20507;-79
2023/01/29 01:05:20;;;;;;;44.95;22.90;;;;;;;-1.47;78.24;99986.63;4999822;28;20539;-81
2023/01/29 01:07:48;;;;;;;35.47;20.90;;;;;;;-1.02;78.09;99989.28;5000110;28;20121;-79
2023/01/29 01:10:20;;;;;;;43.25;23.33;;;;;;;-2.08;78.55;100007.16;5010045;28;20021;-79
2023/01/29 01:12:57;;;;;;;42.20;23.33;;;;;;;-1.91;78.59;99997.78;5006882;28;20034;-79
2023/01/29 01:15:25;;;;;;;45.58;23.27;;;;;;;-1.55;79.74;100005.66;5005154;28;20026;-79
2023/01/29 01:17:52;;;;;;;45.35;23.17;;;;;;;-1.95;79.23;99991.19;5008072;28;20408;-79
2023/01/29 01:20:18;;;;;;;38.13;21.45;;;;;;;-1.83;79.77;100011.78;5008471;28;20485;-80
2023/01/29 01:22:43;;;;;;;58.40;28.08;;;;;;;-2.42;79.94;99982.41;5005677;28;20254;-79
2023/01/29 01:25:09;;;;;;;48.40;24.40;;;;;;;-1.88;81.04;100010.59;5010172;28;20393;-79
2023/01/29 01:27:36;;;;;;;43.92;23.80;;;;;;;-1.35;79.97;100009.03;4990966;28;20025;-79
2023/01/29 01:30:02;;;;;;;42.78;21.55;;;;;;;-0.85;78.30;99997.19;5020672;28;20477;-79
2023/01/29 01:32:28;;;;;;;47.40;24.83;;;;;;;-1.06;77.64;99995.78;4984404;28;20128;-79
2023/01/29 01:34:53;;;;;;;42.40;22.10;;;;;;;-1.66;78.57;100005.03;4991963;28;20129;-79
2023/01/29 01:37:19;;;;;;;49.05;25.48;;;;;;;-1.68;78.35;100015.59;4991175;28;20455;-80
2023/01/29 01:39:47;;;;;;;48.50;25.60;;;;;;;-1.60;79.38;100001.81;5013692;28;20076;-79
2023/01/29 01:42:13;;;;;;;41.28;21.92;;;;;;;-0.93;78.15;100006.75;5011514;28;20029;-80
2023/01/29 01:44:53;;;;;;;38.97;22.05;;;;;;;-0.94;77.76;100007.72;5009295;28;20037;-79
2023/01/29 01:47:45;;;;;;;39.03;21.67;;;;;;;-0.94;78.18;100003.28;5007409;28;20080;-80
2023/01/29 01:50:15;;;;;;;39.88;21.45;;;;;;;-0.84;77.42;100001.47;5023080;28;20033;-79
2023/01/29 01:52:45;;;;;;;39.47;20.50;;;;;;;-0.79;76.79;99996.56;5021890;28;20334;-79
2023/01/29 01:55:13;;;;;;;44.58;22.92;;;;;;;-0.72;77.42;100014.34;5026210;28;20358;-80
2023/01/29 01:57:42;;;;;;;43.50;23.80;;;;;;;-1.19;78.45;99980.44;5028120;28;20040;-79
2023/01/29 02:00:11;;;;;;;44.15;24.42;;;;;;;-1.00;77.59;100014.38;5030267;28;20040;-80
2023/01/29 02:10:54;;;;;;;48.55;22.65;;;;;;;-0.64;77.10;99980.34;5026376;28;20504;-80
2023/01/29 02:13:20;;;;;;;41.97;22.30;;;;;;;-0.56;76.54;99968.16;5009413;28;20038;-79
2023/01/29 02:15:47;;;;;;;42.00;22.92;;;;;;;-0.65;77.24;99969.03;5008394;28;20827;-79
2023/01/29 02:18:15;;;;;;;48.35;23.05;;;;;;;-0.62;76.97;99952.19;5012406;28;20030;-80
2023/01/29 02:20:47;;;;;;;47.53;23.75;;;;;;;-1.31;77.40;99957.22;5009110;28;20018;-79
2023/01/29 02:23:26;;;;;;;54.40;27.95;;;;;;;-1.69;77.99;99968.66;5030053;28;20033;-80
2023/01/29 02:26:49;;;;;;;48.05;25.63;;;;;;;-1.33;77.73;99953.91;5012749;28;20036;-79
2023/01/29 02:29:26;;;;;;;49.28;25.35;;;;;;;-0.75;76.60;99957.81;4932070;28;20415;-80
2023/01/29 02:32:03;;;;;;;51.25;24.33;;;;;;;-1.59;80.14;99956.34;4951833;28;20038;-80
2023/01/29 02:37:54;;;;;;;54.42;28.38;;;;;;;-2.12;78.06;99950.88;5026884;28;20083;-79
2023/01/29 02:40:33;;;;;;;51.63;25.23;;;;;;;-2.07;80.81;99953.88;5012728;28;20025;-79
2023/01/29 02:43:08;;;;;;;44.67;23.63;;;;;;;-1.39;79.65;99957.09;5024815;28;20045;-79
2023/01/29 02:45:49;;;;;;;50.22;24.48;;;;;;;-1.54;80.29;99951.50;5028627;28;20032;-79
2023/01/29 02:48:21;;;;;;;54.80;28.80;;;;;;;-2.24;79.94;99967.69;5026902;28;20048;-79
2023/01/29 02:51:00;;;;;;;55.80;27.65;;;;;;;-2.87;80.76;99974.28;5025146;28;20120;-79
2023/01/29 02:53:38;;;;;;;63.15;29.75;;;;;;;-2.57;80.83;99970.72;5008247;28;20397;-79
2023/01/29 02:56:12;;;;;;;63.25;28.55;;;;;;;-2.80;81.77;99992.84;5018682;28;20023;-79
2023/01/29 02:58:44;;;;;;;64.72;27.55;;;;;;;-2.29;81.11;99972.50;5012134;28;20116;-79
2023/01/29 03:01:22;;;;;;;59.22;26.25;;;;;;;-2.76;81.29;99981.16;5014312;28;20428;-79
2023/01/29 03:03:54;;;;;;;53.55;25.23;;;;;;;-2.04;81.01;99971.91;5023667;28;20079;-79
2023/01/29 03:06:23;;;;;;;45.92;23.98;;;;;;;-2.10;80.40;99982.13;5018673;28;20166;-80
2023/01/29 03:08:57;;;;;;;47.30;23.08;;;;;;;-1.84;80.48;99983.16;5011169;28;20032;-79
2023/01/29 03:11:23;;;;;;;52.00;23.85;;;;;;;-2.71;79.54;99989.44;5027558;28;20033;-79
2023/01/29 03:14:03;;;;;;;52.75;25.55;;;;;;;-2.14;80.01;99997.25;5025093;28;20186;-78
2023/01/29 03:16:36;;;;;;;61.97;28.27;;;;;;;-1.94;79.24;99991.03;5009583;28;20025;-79
2023/01/29 03:19:15;;;;;;;46.35;24.13;;;;;;;-1.29;78.42;99970.97;5009932;28;20040;-79
2023/01/29 03:21:50;;;;;;;55.90;24.58;;;;;;;-0.98;77.51;99977.53;5011940;28;20194;-79
2023/01/29 03:32:41;;;;;;;52.72;25.30;;;;;;;-1.70;76.88;99959.16;5022547;28;20160;-79
2023/01/29 03:35:09;;;;;;;47.22;22.08;;;;;;;-1.14;77.10;99959.03;5009111;28;20120;-79
2023/01/29 03:37:41;;;;;;;42.53;22.35;;;;;;;-1.05;76.21;99968.63;5028888;28;20025;-80
2023/01/29 03:40:08;;;;;;;45.90;23.70;;;;;;;-0.91;76.44;99970.75;5010361;28;20033;-79
2023/01/29 03:42:55;;;;;;;46.10;23.13;;;;;;;-1.15;76.51;99975.72;4993163;28;20037;-79
2023/01/29 03:45:41;;;;;;;50.03;26.00;;;;;;;-1.16;76.56;99988.00;5007998;28;20410;-79
2023/01/29 03:48:25;;;;;;;40.88;22.48;;;;;;;-1.15;76.01;99967.84;5025679;28;20117;-79
2023/01/29 03:51:06;;;;;;;46.92;23.50;;;;;;;-1.27;77.79;99969.88;5006855;28;20043;-79
2023/01/29 03:53:51;;;;;;;52.85;25.20;;;;;;;-1.85;76.56;99971.88;5005263;28;20041;-79
2023/01/29 03:56:22;;;;;;;47.55;21.73;;;;;;;-1.46;77.92;99969.94;5020781;28;20017;-80
2023/01/29 03:58:58;;;;;;;48.40;24.20;;;;;;;-2.08;79.91;99957.47;5010176;28;20485;-79
2023/01/29 04:01:40;;;;;;;63.97;29.40;;;;;;;-2.83;81.07;99975.66;5025838;28;20027;-79
2023/01/29 04:04:24;;;;;;;55.80;26.95;;;;;;;-2.08;79.73;99967.94;5027287;28;20022;-80
2023/01/29 04:06:55;;;;;;;50.70;23.83;;;;;;;-1.58;78.80;99969.31;5008643;28;20091;-79
2023/01/29 04:09:31;;;;;;;44.70;22.35;;;;;;;-1.37;77.98;99968.25;4985617;28;20041;-79
2023/01/29 04:12:07;;;;;;;52.72;24.50;;;;;;;-1.34;76.82;99949.63;5022952;28;21344;-79
2023/01/29 04:14:34;;;;;;;44.67;23.20;;;;;;;-1.39;77.78;99962.31;5006790;28;20037;-80
2023/01/29 04:17:06;;;;;;;42.78;22.00;;;;;;;-1.37;76.95;99960.38;5023917;28;20021;-79
2023/01/29 04:19:33;;;;;;;45.92;23.98;;;;;;;-1.15;77.19;99962.63;5008922;28;20118;-79
2023/01/29 04:22:22;;;;;;;47.55;23.20;;;;;;;-1.13;76.93;99955.44;5006785;28;20091;-79
2023/01/29 04:24:49;;;;;;;42.42;21.90;;;;;;;-1.00;76.81;99953.28;5026098;28;20029;-80
2023/01/29 04:27:55;;;;;;;46.53;23.52;;;;;;;-1.02;76.61;99937.72;5007192;28;20033;-79
2023/01/29 04:30:33;;;;;;;41.15;22.60;;;;;;;-1.02;76.33;99935.09;5003036;28;20033;-79
2023/01/29 04:33:13;;;;;;;42.08;22.42;;;;;;;-1.20;77.51;99934.25;5008525;28;20033;-79
2023/01/29 04:35:47;;;;;;;48.65;23.85;;;;;;;-2.54;80.70;99952.16;5010051;28;20025;-80
2023/01/29 04:38:21;;;;;;;47.47;25.95;;;;;;;-2.47;83.38;99937.59;5032489;28;20031;-79
2023/01/29 04:41:02;;;;;;;49.15;23.77;;;;;;;-1.75;81.42;99943.88;5006108;28;20043;-80
2023/01/29 04:43:54;;;;;;;43.08;22.02;;;;;;;-1.78;80.29;99944.19;5026251;28;20026;-79
2023/01/29 04:46:34;;;;;;;52.42;25.20;;;;;;;-1.76;79.90;99936.19;5007386;28;20468;-78
2023/01/29 04:49:13;;;;;;;44.13;21.88;;;;;;;-1.83;79.80;99920.22;5030919;28;20022;-80
2023/01/29 04:51:59;;;;;;;44.28;22.38;;;;;;;-1.28;79.15;99922.84;5004113;28;20030;-79
2023/01/29 04:54:43;;;;;;;41.88;20.83;;;;;;;-0.95;77.56;99919.63;5026928;28;20030;-80
2023/01/29 04:57:21;;;;;;;45.28;22.15;;;;;;;-1.29;79.40;99911.59;5006670;28;20083;-79
2023/01/29 04:59:56;;;;;;;44.55;22.35;;;;;;;-2.21;81.89;99903.84;5007198;28;20484;-79
2023/01/29 05:02:23;;;;;;;53.78;26.52;;;;;;;-2.24;82.48;99906.72;5027541;28;20036;-79
2023/01/29 05:04:51;;;;;;;54.08;24.67;;;;;;;-1.61;80.44;99916.41;5023417;28;20107;-79
2023/01/29 05:07:20;;;;;;;45.05;22.80;;;;;;;-1.63;81.87;99911.34;4986717;28;20491;-79
2023/01/29 05:09:47;;;;;;;43.88;23.25;;;;;;;-1.87;82.92;99913.63;5027015;28;20112;-79
2023/01/29 05:12:16;;;;;;;46.30;22.10;;;;;;;-1.34;80.65;99892.03;5013293;28;20543;-79
2023/01/29 05:14:44;;;;;;;45.50;23.33;;;;;;;-1.06;79.98;99899.69;5009869;28;20068;-80
2023/01/29 05:17:17;;;;;;;45.05;23.27;;;;;;;-1.89;83.20;99891.19;5030093;28;20083;-79
2023/01/29 05:19:42;;;;;;;46.83;22.90;;;;;;;-1.81;83.09;99894.75;5013257;28;20343;-79
2023/01/29 05:22:11;;;;;;;44.72;22.20;;;;;;;-1.19;80.33;99882.69;5030689;28;20022;-79
2023/01/29 05:24:37;;;;;;;58.80;26.73;;;;;;;-1.65;80.00;99881.88;4996164;28;20052;-79
2023/01/29 05:29:47;;;;;;;52.92;25.08;;;;;;;-1.85;80.33;99863.78;5014452;28;20131;-79
2023/01/29 05:32:14;;;;;;;58.00;27.15;;;;;;;-2.67;83.05;99865.41;4993195;28;20038;-79
2023/01/29 05:34:40;;;;;;;55.90;27.63;;;;;;;-2.76;84.79;99884.53;5012380;28;20025;-79
2023/01/29 05:37:05;;;;;;;60.03;28.13;;;;;;;-2.85;85.40;99861.84;5009149;28;20075;-79
2023/01/29 05:39:30;;;;;;;57.88;27.00;;;;;;;-2.70;84.94;99857.84;5012370;28;20060;-79
2023/01/29 05:41:56;;;;;;;55.65;26.27;;;;;;;-2.74;85.94;99851.25;5014970;28;20595;-79
2023/01/29 05:44:21;;;;;;;55.95;28.77;;;;;;;-2.43;85.00;99850.94;5011870;28;20473;-79
2023/01/29 05:46:47;;;;;;;60.22;26.83;;;;;;;-2.68;85.22;99861.13;4995077;28;20064;-79
2023/01/29 05:49:12;;;;;;;63.28;27.05;;;;;;;-2.78;86.06;99870.78;5012285;28;20089;-80
2023/01/29 05:51:37;;;;;;;57.38;27.83;;;;;;;-2.88;86.83;99880.41;4992350;28;20055;-79
2023/01/29 05:54:03;;;;;;;67.43;31.17;;;;;;;-3.03;86.45;99879.97;5032749;28;20041;-80
2023/01/29 05:56:28;;;;;;;66.38;28.95;;;;;;;-3.17;86.36;99899.47;5028487;28;20587;-79
2023/01/29 05:58:54;;;;;;;48.88;23.70;;;;;;;-2.80;87.13;99899.66;5005457;28;20041;-79
2023/01/29 06:01:21;;;;;;;50.97;25.30;;;;;;;-2.11;85.55;99902.84;5017827;28;20037;-80
2023/01/29 06:03:47;;;;;;;52.03;25.08;;;;;;;-2.03;84.31;99910.78;5031558;28;20107;-80
2023/01/29 06:06:13;;;;;;;48.17;22.55;;;;;;;-1.74;83.90;99902.84;4995345;28;20037;-79
2023/01/29 06:08:39;;;;;;;46.85;23.17;;;;;;;-1.69;83.16;99906.69;5029495;28;20116;-79
2023/01/29 06:11:07;;;;;;;45.83;22.33;;;;;;;-0.89;80.57;99909.34;5030208;28;20038;-79
2023/01/29 06:13:32;;;;;;;35.63;19.23;;;;;;;-0.77;79.16;99909.97;5026976;28;20034;-79
2023/01/29 06:15:57;;;;;;;37.05;18.42;;;;;;;-0.69;79.35;99910.03;5029498;28;20124;-79
2023/01/29 06:18:23;;;;;;;41.15;20.65;;;;;;;-1.00;80.23;99913.97;4991065;28;20128;-79
2023/01/29 06:20:48;;;;;;;37.50;18.10;;;;;;;-0.68;79.62;99916.94;4996458;28;20104;-79
2023/01/29 06:23:13;;;;;;;38.50;18.42;;;;;;;-0.94;79.21;99910.78;4996256;28;20030;-78
2023/01/29 06:25:39;;;;;;;36.35;19.90;;;;;;;-1.23;80.96;99911.00;5008088;28;20029;-79
2023/01/29 06:28:04;;;;;;;37.75;19.00;;;;;;;-0.78;79.40;99901.28;4994593;28;20485;-79
2023/01/29 06:30:30;;;;;;;35.05;17.75;;;;;;;-0.90;80.37;99922.63;4980019;28;20037;-80
2023/01/29 06:32:57;;;;;;;38.40;19.88;;;;;;;-1.03;80.75;99930.03;5033953;28;20389;-79
2023/01/29 06:35:23;;;;;;;37.08;20.60;;;;;;;-1.90;83.62;99937.44;5008702;28;20036;-79
2023/01/29 06:37:49;;;;;;;45.70;21.60;;;;;;;-2.38;86.12;99932.34;5025037;28;20048;-80
2023/01/29 06:40:14;;;;;;;41.03;21.70;;;;;;;-1.00;82.15;99921.84;4980222;28;20033;-79
2023/01/29 06:42:40;;;;;;;46.60;23.95;;;;;;;-1.09;81.35;99939.28;5013515;28;20033;-79
2023/01/29 06:45:06;;;;;;;36.30;19.00;;;;;;;-0.80;81.30;99942.53;5007080;28;20433;-79
2023/01/29 06:47:31;;;;;;;38.40;19.70;;;;;;;-0.98;80.50;99946.94;5011765;28;20029;-78
2023/01/29 06:49:57;;;;;;;35.50;18.83;;;;;;;-1.27;82.48;99951.53;5011885;28;20068;-79
2023/01/29 06:52:24;;;;;;;42.35;21.63;;;;;;;-1.86;81.40;99951.94;4981152;28;20115;-78
2023/01/29 06:54:49;;;;;;;36.47;20.50;;;;;;;-1.15;82.24;99947.72;5010550;28;20025;-78
2023/01/29 06:57:14;;;;;;;40.25;20.38;;;;;;;-1.44;81.19;99960.13;4993391;28;20028;-78
2023/01/29 06:59:40;;;;;;;44.67;21.38;;;;;;;-1.55;82.73;99974.25;5026910;28;20212;-78
2023/01/29 07:02:05;;;;;;;39.28;19.48;;;;;;;-0.86;81.67;99977.19;5005431;28;20034;-79
2023/01/29 07:04:31;;;;;;;37.67;19.83;;;;;;;-1.19;80.34;99969.94;5024988;28;20039;-79
2023/01/29 07:06:58;;;;;;;31.23;18.33;;;;;;;-1.13;80.73;99977.22;5023036;28;20029;-80
2023/01/29 07:09:23;;;;;;;40.50;19.63;;;;;;;-1.21;80.90;99955.34;5023928;28;20492;-79
2023/01/29 07:11:49;;;;;;;34.03;17.98;;;;;;;-1.21;82.57;99940.47;5005048;28;20021;-79
2023/01/29 07:14:14;;;;;;;38.78;19.80;;;;;;;-1.23;81.68;99926.69;5017855;28;20538;-79
2023/01/29 07:16:39;;;;;;;35.13;17.48;;;;;;;-0.91;81.69;99918.34;5023577;28;20041;-79
2023/01/29 07:19:05;;;;;;;37.20;16.25;;;;;;;-0.94;80.84;99914.22;5004031;28;20033;-80
2023/01/29 07:21:30;;;;;;;28.33;16.13;;;;;;;-0.93;80.81;99907.19;5022100;28;20083;-79
2023/01/29 07:23:56;;;;;;;36.53;18.67;;;;;;;-0.67;79.72;99913.31;5020068;28;20030;-79
2023/01/29 07:26:21;;;;;;;31.48;17.27;;;;;;;-0.62;79.53;99913.69;5008134;28;20045;-79
2023/01/29 07:28:47;;;;;;;40.33;19.67;;;;;;;-1.30;80.36;99923.00;5008432;28;20049;-79
2023/01/29 07:31:13;;;;;;;33.63;17.52;;;;;;;-0.93;80.64;99896.69;4999850;28;20041;-79
2023/01/29 07:33:39;;;;;;;35.55;17.50;;;;;;;-1.10;81.04;99893.13;4984688;28;20029;-78
2023/01/29 07:36:09;;;;;;;31.58;15.13;;;;;;;-0.90;80.38;99891.19;5022326;28;20034;-79
2023/01/29 07:38:34;;;;;;;30.02;16.60;;;;;;;-0.81;80.39;99875.34;5004818;28;20028;-79
2023/01/29 07:41:00;;;;;;;31.90;14.68;;;;;;;-0.76;80.43;99872.28;5009635;28;20116;-79
2023/01/29 07:43:25;;;;;;;28.33;14.57;;;;;;;-0.88;80.32;99874.34;4990557;28;20045;-79
2023/01/29 07:45:51;;;;;;;27.98;12.80;;;;;;;-0.91;80.63;99882.50;5018647;28;21131;-79
2023/01/29 07:48:16;;;;;;;29.25;15.90;;;;;;;-0.82;80.10;99894.69;5019633;28;20041;-79
2023/01/29 07:50:42;;;;;;;25.17;12.20;;;;;;;-0.86;80.59;99903.00;5004583;28;20384;-80
2023/01/29 07:53:12;;;;;;;22.58;12.77;;;;;;;-0.83;80.60;99898.28;5010660;28;20040;-80
2023/01/29 07:55:38;;;;;;;25.75;12.60;;;;;;;-0.81;80.70;99903.38;5021372;28;20657;-79
2023/01/29 07:58:03;;;;;;;28.25;14.40;;;;;;;-0.86;80.19;99901.22;5002268;28;20087;-79
2023/01/29 08:00:31;;;;;;;25.00;14.88;;;;;;;-0.62;79.46;99926.81;4998815;28;20036;-79
2023/01/29 08:03:05;;;;;;;28.90;15.65;;;;;;;-0.76;80.00;99901.13;5006087;28;20060;-78
2023/01/29 08:05:30;;;;;;;28.92;15.38;;;;;;;-1.31;80.79;99923.16;4990137;28;20068;-79
2023/01/29 08:07:56;;;;;;;32.55;16.60;;;;;;;-1.88;82.82;99937.34;5010340;28;20056;-79
2023/01/29 08:10:21;;;;;;;29.73;14.77;;;;;;;-1.44;82.93;99943.63;5004054;28;20041;-79
2023/01/29 08:12:47;;;;;;;30.13;16.33;;;;;;;-1.94;83.86;99938.72;5006250;28;20037;-79
2023/01/29 08:15:12;;;;;;;35.10;18.15;;;;;;;-2.22;85.23;99920.47;5022815;28;20131;-79
2023/01/29 08:17:38;;;;;;;40.13;18.45;;;;;;;-2.37;84.99;99927.94;5006827;28;20536;-78
2023/01/29 08:20:06;;;;;;;33.05;16.90;;;;;;;-2.47;85.18;99935.78;5008699;28;20121;-78
2023/01/29 08:22:31;;;;;;;33.53;17.40;;;;;;;-2.58;85.93;99929.91;5027997;28;20040;-78
2023/01/29 08:24:57;;;;;;;32.25;16.55;;;;;;;-1.56;86.35;99929.91;5028717;28;20126;-78
2023/01/29 08:27:22;;;;;;;37.97;17.75;;;;;;;-2.04;83.85;99916.16;5026490;28;20477;-79
2023/01/29 08:29:47;;;;;;;34.03;17.33;;;;;;;-1.84;83.75;99905.50;4991629;28;20627;-78
2023/01/29 08:32:13;;;;;;;30.50;15.77;;;;;;;-2.03;85.02;99913.41;4993282;28;20544;-79
2023/01/29 08:34:38;;;;;;;28.50;15.05;;;;;;;-1.25;83.63;99894.59;4991023;28;20067;-79
2023/01/29 08:37:03;;;;;;;29.60;14.63;;;;;;;-0.60;81.48;99896.03;5010079;28;20041;-78
2023/01/29 08:39:29;;;;;;;40.13;17.25;;;;;;;-1.57;83.03;99902.91;5023707;28;20124;-79
2023/01/29 08:41:54;;;;;;;32.20;16.98;;;;;;;-1.53;83.56;99904.25;5004667;28;20087;-78
2023/01/29 08:44:19;;;;;;;34.83;17.60;;;;;;;-1.45;83.53;99921.84;5003229;28;20059;-79
2023/01/29 08:46:45;;;;;;;30.08;17.27;;;;;;;-1.51;83.65;99894.44;5010806;28;20035;-78
2023/01/29 08:49:10;;;;;;;28.08;16.05;;;;;;;-1.60;84.17;99905.81;5005653;28;20029;-78
2023/01/29 08:51:35;;;;;;;28.75;15.18;;;;;;;-0.95;83.01;99890.78;4995535;28;20053;-78
2023/01/29 08:54:01;;;;;;;30.65;15.98;;;;;;;-1.04;82.21;99881.22;4998330;28;20041;-79
2023/01/29 08:56:26;;;;;;;26.08;14.43;;;;;;;-0.47;82.04;99872.03;5027088;28;20121;-78
2023/01/29 08:58:51;;;;;;;24.98;14.55;;;;;;;-0.27;81.07;99861.19;5003929;28;20077;-78
2023/01/29 09:01:17;;;;;;;24.63;13.82;;;;;;;-0.18;79.80;99862.91;5009240;28;20064;-78
2023/01/29 09:03:45;;;;;;;27.48;15.30;;;;;;;-0.17;80.25;99868.94;5011244;28;20100;-79
2023/01/29 09:06:12;;;;;;;24.58;14.40;;;;;;;-0.03;79.04;99866.59;5011925;28;20037;-79
2023/01/29 09:08:38;;;;;;;27.08;14.15;;;;;;;-0.93;81.72;99868.72;5010301;28;20038;-79
2023/01/29 09:11:04;;;;;;;29.02;13.88;;;;;;;-0.20;80.88;99885.00;5027540;28;20025;-79
2023/01/29 09:13:29;;;;;;;39.65;19.63;;;;;;;-0.24;79.05;99884.47;5028355;28;20092;-79
2023/01/29 09:16:00;;;;;;;29.88;15.77;;;;;;;-0.24;80.22;99886.28;5012123;28;20031;-78
2023/01/29 09:18:25;;;;;;;31.63;18.27;;;;;;;-0.82;80.68;99899.94;5011180;28;20504;-79
2023/01/29 09:20:52;;;;;;;34.22;17.30;;;;;;;-0.07;80.39;99901.16;5027548;28;20034;-80
2023/01/29 09:23:18;;;;;;;33.70;17.92;;;;;;;-0.57;79.90;99898.34;5028472;28;20072;-79
2023/01/29 09:25:43;;;;;;;27.27;15.55;;;;;;;-0.61;79.59;99899.59;5015018;28;20445;-79
2023/01/29 09:28:09;;;;;;;23.00;12.57;;;;;;;-0.10;81.02;99891.78;5012984;28;20037;-79
2023/01/29 09:30:36;;;;;;;33.63;16.70;;;;;;;-0.70;79.37;99897.91;5018924;28;20548;-79
2023/01/29 09:33:03;;;;;;;25.48;14.73;;;;;;;-0.43;81.26;99889.91;5025059;28;20904;-78
2023/01/29 09:35:28;;;;;;;27.00;15.13;;;;;;;0.24;80.03;99888.38;5005300;28;20057;-78
2023/01/29 09:37:54;;;;;;;23.40;14.35;;;;;;;0.27;79.00;99895.91;4990939;28;20053;-78
2023/01/29 09:40:25;;;;;;;28.83;15.70;;;;;;;-0.34;78.61;99891.63;5011894;28;20478;-79
2023/01/29 09:42:56;;;;;;;32.85;16.42;;;;;;;-0.64;79.93;99875.50;5029091;28;20030;-78
2023/01/29 09:45:23;;;;;;;29.75;17.20;;;;;;;-0.39;80.20;99890.44;5009036;28;20112;-78
2023/01/29 09:47:50;;;;;;;26.40;14.75;;;;;;;-0.42;81.52;99888.97;5004955;28;20037;-78
2023/01/29 09:50:25;;;;;;;24.58;13.85;;;;;;;0.23;80.76;99884.91;5029825;28;21592;-79
2023/01/29 09:53:09;;;;;;;29.40;16.30;;;;;;;0.20;79.48;99885.22;5010747;28;20385;-78
2023/01/29 09:55:42;;;;;;;25.75;15.38;;;;;;;0.36;79.62;99877.41;5003025;28;20037;-79
2023/01/29 09:58:26;;;;;;;25.80;14.82;;;;;;;0.18;79.72;99866.19;5011537;28;20063;-79
2023/01/29 10:01:10;;;;;;;22.58;13.43;;;;;;;0.69;78.86;99867.84;5028080;28;20880;-79
2023/01/29 10:04:02;;;;;;;23.35;12.60;;;;;;;0.57;78.80;99869.94;5035429;28;20028;-78
2023/01/29 10:06:55;;;;;;;27.85;13.82;;;;;;;0.72;78.69;99859.66;5013046;28;20469;-78
2023/01/29 10:09:26;;;;;;;29.73;13.85;;;;;;;0.69;78.84;99857.34;5016063;28;20033;-79
2023/01/29 10:11:58;;;;;;;29.52;13.32;;;;;;;0.77;78.46;99854.72;5006251;28;20033;-79
2023/01/29 10:14:26;;;;;;;21.27;13.63;;;;;;;0.81;77.85;99842.09;5024610;28;21658;-78
2023/01/29 10:16:54;;;;;;;24.80;13.07;;;;;;;0.66;78.30;99840.09;5023971;28;20059;-79
2023/01/29 10:19:31;;;;;;;20.98;13.25;;;;;;;0.69;78.58;99841.56;5013525;28;20030;-79
2023/01/29 10:21:56;;;;;;;21.80;13.00;;;;;;;0.81;78.43;99826.34;5024289;28;20187;-79
2023/01/29 10:24:38;;;;;;;23.02;12.30;;;;;;;0.98;77.73;99820.94;5024624;28;20124;-79
2023/01/29 10:27:13;;;;;;;25.95;13.70;;;;;;;0.85;77.98;99817.97;5025762;28;20025;-79
2023/01/29 10:29:41;;;;;;;18.40;12.25;;;;;;;0.92;77.44;99805.00;5017546;28;20455;-79
2023/01/29 10:32:14;;;;;;;17.85;11.38;;;;;;;1.03;77.40;99807.28;4993259;28;20120;-80
2023/01/29 10:35:01;;;;;;;22.38;13.05;;;;;;;0.88;77.58;99798.41;5011156;28;20017;-78
2023/01/29 10:37:38;;;;;;;20.17;11.77;;;;;;;0.88;77.76;99807.13;5026870;28;20089;-78
2023/01/29 10:40:18;;;;;;;19.83;10.90;;;;;;;0.90;77.99;99801.69;5011186;28;20037;-78
2023/01/29 10:42:51;;;;;;;20.88;12.70;;;;;;;0.90;77.71;99783.28;5030139;28;20060;-78
2023/01/29 10:45:45;;;;;;;23.33;13.18;;;;;;;1.02;77.35;99792.50;5011275;28;20021;-78
2023/01/29 10:48:19;;;;;;;22.17;12.98;;;;;;;0.90;77.00;99794.63;5026144;28;20037;-79
2023/01/29 10:50:54;;;;;;;21.23;12.40;;;;;;;0.90;77.29;99786.75;5032938;28;20585;-78
2023/01/29 10:53:31;;;;;;;21.73;12.57;;;;;;;0.87;77.56;99787.09;5025174;28;20095;-79
2023/01/29 10:56:14;;;;;;;20.20;13.25;;;;;;;0.74;77.33;99774.41;5013254;28;20048;-80
2023/01/29 10:59:02;;;;;;;33.42;17.40;;;;;;;0.73;77.54;99785.94;5030972;28;20037;-79
2023/01/29 11:01:27;;;;;;;26.40;12.57;;;;;;;0.67;77.41;99775.25;5026423;28;20025;-80
2023/01/29 11:03:59;;;;;;;22.30;11.90;;;;;;;0.68;77.37;99763.75;5029958;28;20025;-79
2023/01/29 11:06:33;;;;;;;25.38;13.02;;;;;;;0.57;77.75;99762.25;5021532;28;20041;-80
2023/01/29 11:09:08;;;;;;;26.48;15.27;;;;;;;0.57;77.32;99756.16;5013712;28;20067;-80
2023/01/29 11:11:51;;;;;;;26.30;15.80;;;;;;;0.72;76.97;99754.56;5034317;28;20034;-80
2023/01/29 11:14:41;;;;;;;23.67;13.73;;;;;;;0.65;77.37;99754.41;5015619;28;20080;-78
2023/01/29 11:17:17;;;;;;;21.58;12.02;;;;;;;0.54;77.44;99752.09;5013079;28;20123;-80
2023/01/29 11:19:45;;;;;;;20.75;11.73;;;;;;;0.45;77.46;99741.72;5030883;28;20077;-80
2023/01/29 11:22:19;;;;;;;20.67;12.57;;;;;;;0.64;77.39;99749.28;5030848;28;20032;-79
2023/01/29 11:24:45;;;;;;;21.27;12.23;;;;;;;0.59;77.39;99752.41;4994635;28;20075;-78
2023/01/29 11:27:22;;;;;;;20.88;12.02;;;;;;;0.45;77.46;99733.84;5033688;28;20033;-80
2023/01/29 11:29:48;;;;;;;14.27;9.60;;;;;;;0.35;77.77;99738.44;4987552;28;20036;-79
2023/01/29 11:32:27;;;;;;;24.13;12.60;;;;;;;0.35;77.80;99727.94;4999014;28;20124;-80
2023/01/29 11:35:04;;;;;;;24.30;13.20;;;;;;;0.40;77.21;99738.75;5001234;28;20033;-79
2023/01/29 11:37:38;;;;;;;20.77;12.98;;;;;;;0.45;77.39;99733.84;5029475;28;20017;-80
2023/01/29 11:40:23;;;;;;;22.50;11.90;;;;;;;0.37;77.46;99736.47;5030506;28;20029;-79
2023/01/29 11:42:50;;;;;;;18.80;11.95;;;;;;;0.47;76.83;99730.09;5032858;28;20025;-80
2023/01/29 11:45:18;;;;;;;21.75;13.00;;;;;;;0.33;77.45;99733.31;4998037;28;20028;-78
2023/01/29 11:47:49;;;;;;;22.50;14.68;;;;;;;0.44;76.70;99724.31;5011656;28;20037;-78
2023/01/29 11:50:22;;;;;;;25.00;16.15;;;;;;;0.51;76.78;99717.44;5029442;28;20026;-80
2023/01/29 11:52:47;;;;;;;25.92;13.48;;;;;;;0.64;76.91;99709.88;5031905;28;20382;-79
2023/01/29 11:55:18;;;;;;;20.33;13.95;;;;;;;0.57;76.56;99722.03;4996028;28;20026;-78
2023/01/29 11:57:49;;;;;;;24.75;13.52;;;;;;;0.57;76.63;99708.91;5028131;28;20113;-79
2023/01/29 12:00:28;;;;;;;23.80;13.13;;;;;;;0.59;76.45;99720.09;5007999;28;20057;-78